createdAt,value
2022-09-12T00:01:14.252Z,5.40
2022-09-12T00:03:43.090Z,5.37
2022-09-12T00:06:13.850Z,6.10
2022-09-12T00:08:44.510Z,5.93
2022-09-12T00:11:13.784Z,5.10
2022-09-12T00:13:43.173Z,5.00
2022-09-12T00:16:18.750Z,5.47
2022-09-12T00:18:47.768Z,4.40
2022-09-12T00:21:16.627Z,4.80
2022-09-12T00:23:46.859Z,4.50
2022-09-12T00:26:15.291Z,4.67
2022-09-12T00:28:43.534Z,5.03
2022-09-12T00:31:14.371Z,5.90
2022-09-12T00:33:42.968Z,5.88
2022-09-12T00:36:14.852Z,6.05
2022-09-12T00:38:43.094Z,4.80
2022-09-12T00:41:18.254Z,5.10
2022-09-12T00:43:47.853Z,5.22
2022-09-12T00:46:26.195Z,5.75
2022-09-12T00:48:58.055Z,5.00
2022-09-12T00:51:26.880Z,4.88
2022-09-12T00:53:56.416Z,4.80
2022-09-12T00:56:26.408Z,5.55
2022-09-12T00:58:58.896Z,5.68
2022-09-12T01:01:31.738Z,5.90
2022-09-12T01:04:00.972Z,4.90
2022-09-12T01:06:34.134Z,6.10
2022-09-12T01:09:04.147Z,6.30
2022-09-12T01:11:37.033Z,6.50
2022-09-12T01:14:07.552Z,5.38
2022-09-12T01:16:37.814Z,5.78
2022-09-12T01:19:23.492Z,5.13
2022-09-12T01:22:03.178Z,5.95
2022-09-12T01:24:44.613Z,5.50
2022-09-12T01:27:41.407Z,5.90
2022-09-12T01:30:48.118Z,6.25
2022-09-12T01:33:32.802Z,5.82
2022-09-12T01:36:27.067Z,4.68
2022-09-12T01:39:01.456Z,5.60
2022-09-12T01:41:35.378Z,4.93
2022-09-12T01:44:12.994Z,4.60
2022-09-12T01:46:46.611Z,4.85
2022-09-12T01:49:21.519Z,5.10
2022-09-12T01:51:57.824Z,4.88
2022-09-12T01:54:31.830Z,5.53
2022-09-12T01:57:05.174Z,5.40
2022-09-12T01:59:36.935Z,5.50
2022-09-12T02:02:09.942Z,5.75
2022-09-12T02:04:48.743Z,5.63
2022-09-12T02:07:21.398Z,4.80
2022-09-12T02:09:55.614Z,5.50
2022-09-12T02:12:30.816Z,5.75
2022-09-12T02:15:03.370Z,4.60
2022-09-12T02:17:38.957Z,6.03
2022-09-12T02:20:26.008Z,5.43
2022-09-12T02:23:08.281Z,5.72
2022-09-12T02:25:41.395Z,6.03
2022-09-12T02:28:13.589Z,4.95
2022-09-12T02:30:46.753Z,5.40
2022-09-12T02:33:21.835Z,6.18
2022-09-12T02:35:58.410Z,5.30
2022-09-12T02:38:31.992Z,4.33
2022-09-12T02:41:00.102Z,5.40
2022-09-12T02:43:28.118Z,5.65
2022-09-12T02:45:56.267Z,5.78
2022-09-12T02:48:29.132Z,5.38
2022-09-12T02:50:58.704Z,5.63
2022-09-12T02:53:27.441Z,5.70
2022-09-12T02:55:55.818Z,6.07
2022-09-12T02:58:30.672Z,5.63
2022-09-12T03:01:06.632Z,4.72
2022-09-12T03:03:55.268Z,5.25
2022-09-12T03:06:32.719Z,5.40
2022-09-12T03:09:09.940Z,4.60
2022-09-12T03:11:52.093Z,4.90
2022-09-12T03:14:34.069Z,5.33
2022-09-12T03:17:11.204Z,5.40
2022-09-12T03:19:52.261Z,4.93
2022-09-12T03:22:29.806Z,5.60
2022-09-12T03:25:06.792Z,5.00
2022-09-12T03:27:37.380Z,5.97
2022-09-12T03:30:07.026Z,6.15
2022-09-12T03:32:42.729Z,5.35
2022-09-12T03:35:11.905Z,4.40
2022-09-12T03:37:41.745Z,4.47
2022-09-12T03:40:11.824Z,5.20
2022-09-12T03:42:40.114Z,4.78
2022-09-12T03:45:10.013Z,4.93
2022-09-12T03:47:38.086Z,4.60
2022-09-12T03:50:07.277Z,5.57
2022-09-12T03:52:35.283Z,5.53
2022-09-12T03:55:05.118Z,5.32
2022-09-12T03:57:33.126Z,4.43
2022-09-12T04:00:02.016Z,5.15
2022-09-12T04:02:40.565Z,5.00
2022-09-12T04:05:09.100Z,4.47
2022-09-12T04:07:37.157Z,4.20
2022-09-12T04:10:07.521Z,4.78
2022-09-12T04:12:35.915Z,5.35
2022-09-12T04:15:04.021Z,4.40
2022-09-12T04:17:32.018Z,3.92
2022-09-12T04:20:00.097Z,4.57
2022-09-12T04:22:29.893Z,4.30
2022-09-12T04:24:57.859Z,4.43
2022-09-12T04:27:27.400Z,3.67
2022-09-12T04:29:59.139Z,3.90
2022-09-12T04:32:27.230Z,4.00
2022-09-12T04:34:55.210Z,3.95
2022-09-12T04:37:24.244Z,3.60
2022-09-12T04:39:56.040Z,3.50
2022-09-12T04:42:26.559Z,3.35
2022-09-12T04:44:55.983Z,3.60
2022-09-12T04:47:24.158Z,4.00
2022-09-12T04:49:52.491Z,3.33
2022-09-12T04:52:20.928Z,4.33
2022-09-12T04:54:48.888Z,4.05
2022-09-12T04:57:16.933Z,4.10
2022-09-12T04:59:47.807Z,3.40
2022-09-12T05:02:17.263Z,4.10
2022-09-12T05:04:46.899Z,4.17
2022-09-12T05:07:15.001Z,3.83
2022-09-12T05:09:43.744Z,3.92
2022-09-12T05:12:11.715Z,3.43
2022-09-12T05:14:40.587Z,3.20
2022-09-12T05:17:08.945Z,3.20
2022-09-12T05:19:39.171Z,4.00
2022-09-12T05:22:07.161Z,4.22
2022-09-12T05:24:35.184Z,3.70
2022-09-12T05:27:04.757Z,3.88
2022-09-12T05:29:32.859Z,3.40
2022-09-12T05:32:00.880Z,3.70
2022-09-12T05:34:28.971Z,3.95
2022-09-12T05:36:58.307Z,3.22
2022-09-12T05:39:27.807Z,3.30
2022-09-12T05:41:56.402Z,3.90
2022-09-12T05:44:24.920Z,3.60
2022-09-12T05:46:53.671Z,3.67
2022-09-12T05:49:22.629Z,3.83
2022-09-12T05:51:51.636Z,3.92
2022-09-12T05:54:21.335Z,3.25
2022-09-12T05:56:50.032Z,4.10
2022-09-12T05:59:22.041Z,3.50
2022-09-12T06:01:50.683Z,3.72
2022-09-12T06:04:18.795Z,3.35
2022-09-12T06:06:48.694Z,3.83
2022-09-12T06:09:17.932Z,4.03
2022-09-12T06:11:47.750Z,4.07
2022-09-12T06:14:17.584Z,3.78
2022-09-12T06:16:45.574Z,3.97
2022-09-12T06:19:16.172Z,3.90
2022-09-12T06:21:44.737Z,4.28
2022-09-12T06:24:12.886Z,3.90
2022-09-12T06:26:40.992Z,4.30
2022-09-12T06:29:13.383Z,4.70
2022-09-12T06:31:43.175Z,5.03
2022-09-12T06:34:15.149Z,4.70
2022-09-12T06:36:45.399Z,4.38
2022-09-12T06:39:16.207Z,6.15
2022-09-12T06:41:44.645Z,5.53
2022-09-12T06:44:16.760Z,5.55
2022-09-12T06:46:45.334Z,7.28
2022-09-12T06:49:13.790Z,7.07
2022-09-12T06:51:43.308Z,7.27
2022-09-12T06:54:13.935Z,7.47
2022-09-12T06:56:42.217Z,8.98
2022-09-12T06:59:10.312Z,8.43
2022-09-12T07:01:42.480Z,8.67
2022-09-12T07:04:11.745Z,9.35
2022-09-12T07:06:41.840Z,9.17
2022-09-12T07:09:12.743Z,9.20
2022-09-12T07:11:42.872Z,8.80
2022-09-12T07:14:14.064Z,9.32
2022-09-12T07:16:43.741Z,9.00
2022-09-12T07:19:12.140Z,8.25
2022-09-12T07:21:41.012Z,8.13
2022-09-12T07:24:10.963Z,9.27
2022-09-12T07:26:40.500Z,9.50
2022-09-12T07:29:35.470Z,7.60
2022-09-12T07:32:01.339Z,7.43
2022-09-12T07:34:29.316Z,7.13
2022-09-12T07:36:57.256Z,7.60
2022-09-12T07:39:25.275Z,6.82
2022-09-12T07:41:55.511Z,7.43
2022-09-12T07:44:23.611Z,8.27
2022-09-12T07:46:52.335Z,7.65
2022-09-12T07:49:21.669Z,6.53
2022-09-12T07:51:49.854Z,6.80
2022-09-12T07:54:17.898Z,6.13
2022-09-12T07:56:45.879Z,6.37
2022-09-12T07:59:18.922Z,5.93
2022-09-12T08:01:58.241Z,5.28
2022-09-12T08:04:27.676Z,5.85
2022-09-12T08:06:55.662Z,6.10
2022-09-12T08:09:26.703Z,6.50
2022-09-12T08:11:54.728Z,5.95
2022-09-12T08:14:22.693Z,5.43
2022-09-12T08:16:50.708Z,5.78
2022-09-12T08:19:18.649Z,6.13
2022-09-12T08:21:48.060Z,6.30
2022-09-12T08:24:16.109Z,6.40
2022-09-12T08:26:44.147Z,5.70
2022-09-12T08:29:12.545Z,5.55
2022-09-12T08:31:42.499Z,5.10
2022-09-12T08:34:10.791Z,5.38
2022-09-12T08:36:38.798Z,4.15
2022-09-12T08:39:08.981Z,4.18
2022-09-12T08:41:40.762Z,4.18
2022-09-12T08:44:29.213Z,4.20
2022-09-12T08:47:23.556Z,3.90
2022-09-12T08:50:03.607Z,4.30
2022-09-12T08:52:39.369Z,3.70
2022-09-12T08:55:24.740Z,3.60
2022-09-12T08:57:54.536Z,3.53
2022-09-12T09:00:23.233Z,4.10
2022-09-12T09:03:11.599Z,4.30
2022-09-12T09:05:50.101Z,4.57
2022-09-12T09:08:45.487Z,4.30
2022-09-12T09:11:27.304Z,4.20
2022-09-12T09:14:22.255Z,4.53
2022-09-12T09:16:53.295Z,4.15
2022-09-12T09:19:25.698Z,5.13
2022-09-12T09:21:59.885Z,4.20
2022-09-12T09:24:34.417Z,4.45
2022-09-12T09:27:23.495Z,4.40
2022-09-12T09:29:57.118Z,4.28
2022-09-12T09:32:29.281Z,4.30
2022-09-12T09:34:57.505Z,4.07
2022-09-12T09:37:36.541Z,3.70
2022-09-12T09:40:15.680Z,3.95
2022-09-12T09:42:53.986Z,3.42
2022-09-12T09:45:25.172Z,3.90
2022-09-12T09:47:58.408Z,3.80
2022-09-12T09:50:26.537Z,3.72
2022-09-12T09:52:57.003Z,3.55
2022-09-12T09:55:31.496Z,3.60
2022-09-12T09:58:00.848Z,4.13
2022-09-12T10:00:34.087Z,4.20
2022-09-12T10:05:50.611Z,4.45
2022-09-12T10:08:24.034Z,4.20
2022-09-12T10:10:57.435Z,3.80
2022-09-12T10:13:34.143Z,3.70
2022-09-12T10:16:04.138Z,4.00
2022-09-12T10:18:42.234Z,3.70
2022-09-12T10:21:21.212Z,3.75
2022-09-12T10:23:53.972Z,3.33
2022-09-12T10:26:22.777Z,3.70
2022-09-12T10:28:54.572Z,3.80
2022-09-12T10:31:29.180Z,3.90
2022-09-12T10:34:00.932Z,3.72
2022-09-12T10:36:38.516Z,3.75
2022-09-12T10:39:07.965Z,4.00
2022-09-12T10:41:39.315Z,3.80
2022-09-12T10:44:15.875Z,4.28
2022-09-12T10:46:43.965Z,4.40
2022-09-12T10:49:25.272Z,4.00
2022-09-12T10:51:54.993Z,3.45
2022-09-12T10:54:26.073Z,3.60
2022-09-12T10:57:09.562Z,3.78
2022-09-12T11:00:05.264Z,3.63
2022-09-12T11:02:44.389Z,3.08
2022-09-12T11:05:22.825Z,2.92
2022-09-12T11:07:57.515Z,2.30
2022-09-12T11:10:43.769Z,2.15
2022-09-12T11:13:31.189Z,2.40
2022-09-12T11:16:22.969Z,2.30
2022-09-12T11:19:23.516Z,2.40
2022-09-12T11:22:11.752Z,2.10
2022-09-12T11:25:00.198Z,2.28
2022-09-12T11:27:48.513Z,2.45
2022-09-12T11:30:18.749Z,2.60
2022-09-12T11:33:10.399Z,2.60
2022-09-12T11:35:51.864Z,2.20
2022-09-12T11:38:50.851Z,2.25
2022-09-12T11:41:24.693Z,2.10
2022-09-12T11:43:59.554Z,2.17
2022-09-12T11:46:36.205Z,2.22
2022-09-12T11:49:28.491Z,2.03
2022-09-12T11:52:01.517Z,2.17
2022-09-12T11:54:36.186Z,2.00
2022-09-12T11:57:12.457Z,2.30
2022-09-12T11:59:47.427Z,2.25
2022-09-12T12:02:23.238Z,2.17
2022-09-12T12:05:04.914Z,2.22
2022-09-12T12:07:45.603Z,2.27
2022-09-12T12:10:26.307Z,2.40
2022-09-12T12:12:56.396Z,2.30
2022-09-12T12:15:26.988Z,2.20
2022-09-12T12:18:03.699Z,2.20
2022-09-12T12:20:33.536Z,2.30
2022-09-12T12:23:02.071Z,2.03
2022-09-12T12:25:42.957Z,2.00
2022-09-12T12:28:10.988Z,2.35
2022-09-12T12:31:03.676Z,2.20
2022-09-12T12:34:02.090Z,2.35
2022-09-12T12:36:38.516Z,2.70
2022-09-12T12:39:45.877Z,2.30
2022-09-12T12:42:50.537Z,2.57
2022-09-12T12:46:01.594Z,2.50
2022-09-12T12:48:45.431Z,2.47
2022-09-12T12:51:27.345Z,2.28
2022-09-12T12:53:57.057Z,2.47
2022-09-12T12:56:30.731Z,2.55
2022-09-12T12:59:02.361Z,2.30
2022-09-12T13:01:31.846Z,2.67
2022-09-12T13:04:03.788Z,2.70
2022-09-12T13:06:35.386Z,2.40
2022-09-12T13:09:08.771Z,2.63
2022-09-12T13:11:39.581Z,2.60
2022-09-12T13:14:28.413Z,2.40
2022-09-12T13:17:00.159Z,3.00
2022-09-12T13:19:31.936Z,2.67
2022-09-12T13:22:02.795Z,3.00
2022-09-12T13:24:32.298Z,3.10
2022-09-12T13:27:00.351Z,2.83
2022-09-12T13:29:29.336Z,2.90
2022-09-12T13:31:59.391Z,3.08
2022-09-12T13:34:30.412Z,2.90
2022-09-12T13:37:22.156Z,2.97
2022-09-12T13:40:00.902Z,2.97
2022-09-12T13:42:42.652Z,2.80
2022-09-12T13:45:15.510Z,3.10
2022-09-12T13:47:45.636Z,3.20
2022-09-12T13:50:19.057Z,3.00
2022-09-12T13:52:51.637Z,3.13
2022-09-12T13:55:33.770Z,3.33
2022-09-12T13:58:03.463Z,3.00
2022-09-12T14:00:33.229Z,2.70
2022-09-12T14:03:19.730Z,2.83
2022-09-12T14:05:57.897Z,2.67
2022-09-12T14:08:27.009Z,2.80
2022-09-12T14:10:56.432Z,2.80
2022-09-12T14:13:28.248Z,3.20
2022-09-12T14:15:57.515Z,2.85
2022-09-12T14:18:28.547Z,2.80
2022-09-12T14:21:00.908Z,2.40
2022-09-12T14:23:31.164Z,3.05
2022-09-12T14:26:05.061Z,2.50
2022-09-12T14:28:34.403Z,2.40
2022-09-12T14:31:05.861Z,2.70
2022-09-12T14:33:46.935Z,2.60
2022-09-12T14:36:22.791Z,2.72
2022-09-12T14:38:53.451Z,2.65
2022-09-12T14:41:30.815Z,2.50
2022-09-12T14:44:01.655Z,2.20
2022-09-12T14:46:34.565Z,2.58
2022-09-12T14:49:09.191Z,2.80
2022-09-12T14:51:40.576Z,2.67
2022-09-12T14:54:37.253Z,2.75
2022-09-12T14:57:32.259Z,3.33
2022-09-12T15:00:17.857Z,3.03
2022-09-12T15:02:45.989Z,3.00
2022-09-12T15:05:23.766Z,3.20
2022-09-12T15:07:57.882Z,3.10
2022-09-12T15:10:31.086Z,3.60
2022-09-12T15:13:21.935Z,2.87
2022-09-12T15:15:52.189Z,3.47
2022-09-12T15:18:21.385Z,3.45
2022-09-12T15:20:52.166Z,4.00
2022-09-12T15:23:28.268Z,4.18
2022-09-12T15:25:56.638Z,3.80
2022-09-12T15:28:26.893Z,4.68
2022-09-12T15:30:57.767Z,3.58
2022-09-12T15:33:26.583Z,4.05
2022-09-12T15:35:54.589Z,4.50
2022-09-12T15:38:26.382Z,5.60
2022-09-12T15:41:01.097Z,5.72
2022-09-12T15:43:31.745Z,5.30
2022-09-12T15:46:07.081Z,16.55
2022-09-12T15:48:37.016Z,28.38
2022-09-12T15:51:07.720Z,17.83
2022-09-12T15:53:35.918Z,7.70
2022-09-12T15:56:06.663Z,17.93
2022-09-12T15:58:36.432Z,4.13
2022-09-12T16:01:05.521Z,9.18
2022-09-12T16:03:33.535Z,34.67
2022-09-12T16:06:03.583Z,12.23
2022-09-12T16:08:33.004Z,10.18
2022-09-12T16:11:05.770Z,13.27
2022-09-12T16:13:35.811Z,13.82
2022-09-12T16:16:09.039Z,10.35
2022-09-12T16:18:37.368Z,6.72
2022-09-12T16:21:11.324Z,5.25
2022-09-12T16:23:43.671Z,4.35
2022-09-12T16:26:11.866Z,6.00
2022-09-12T16:28:41.576Z,5.33
2022-09-12T16:31:13.803Z,4.97
2022-09-12T16:33:42.281Z,4.10
2022-09-12T16:36:12.143Z,4.60
2022-09-12T16:38:42.832Z,4.55
2022-09-12T16:41:11.701Z,5.00
2022-09-12T16:43:39.967Z,4.80
2022-09-12T16:46:11.436Z,4.57
2022-09-12T16:48:44.429Z,4.95
2022-09-12T16:51:14.630Z,5.20
2022-09-12T16:53:43.112Z,5.07
2022-09-12T16:56:11.291Z,5.53
2022-09-12T16:58:48.199Z,5.07
2022-09-12T17:01:20.180Z,4.90
2022-09-12T17:03:48.721Z,5.70
2022-09-12T17:06:18.966Z,15.07
2022-09-12T17:08:48.846Z,10.25
2022-09-12T17:11:19.329Z,5.30
2022-09-12T17:14:07.879Z,4.32
2022-09-12T17:16:39.539Z,5.55
2022-09-12T17:19:08.660Z,4.57
2022-09-12T17:21:36.643Z,4.77
2022-09-12T17:24:12.375Z,4.80
2022-09-12T17:26:40.666Z,5.00
2022-09-12T17:29:14.737Z,5.10
2022-09-12T17:31:48.153Z,5.55
2022-09-12T17:34:17.592Z,5.50
2022-09-12T17:36:46.221Z,5.85
2022-09-12T17:39:14.752Z,5.18
2022-09-12T17:41:43.225Z,45.25
2022-09-12T17:44:12.900Z,21.97
2022-09-12T17:46:41.588Z,43.53
2022-09-12T17:49:14.839Z,19.92
2022-09-12T17:51:43.740Z,6.75
2022-09-12T17:54:14.152Z,5.60
2022-09-12T17:56:43.524Z,5.80
2022-09-12T17:59:15.823Z,5.50
2022-09-12T18:02:01.846Z,10.93
2022-09-12T18:04:31.312Z,5.85
2022-09-12T18:07:00.440Z,5.93
2022-09-12T18:09:29.160Z,6.18
2022-09-12T18:11:57.602Z,5.72
2022-09-12T18:14:26.276Z,5.60
2022-09-12T18:17:01.794Z,5.73
2022-09-12T18:19:32.134Z,5.90
2022-09-12T18:22:00.111Z,6.30
2022-09-12T18:24:28.699Z,6.10
2022-09-12T18:26:57.590Z,7.20
2022-09-12T18:29:27.693Z,5.82
2022-09-12T18:31:55.701Z,6.18
2022-09-12T18:34:23.749Z,6.43
2022-09-12T18:36:54.946Z,6.47
2022-09-12T18:39:27.317Z,7.15
2022-09-12T18:41:56.358Z,6.33
2022-09-12T18:44:24.326Z,6.05
2022-09-12T18:46:52.848Z,6.30
2022-09-12T18:49:21.092Z,7.20
2022-09-12T18:51:49.117Z,7.22
2022-09-12T18:54:18.812Z,6.07
2022-09-12T18:56:47.639Z,6.00
2022-09-12T18:59:15.742Z,6.80
2022-09-12T19:01:44.272Z,6.88
2022-09-12T19:04:13.637Z,7.20
2022-09-12T19:06:43.781Z,7.13
2022-09-12T19:09:13.148Z,6.95
2022-09-12T19:11:48.816Z,7.15
2022-09-12T19:14:17.719Z,6.87
2022-09-12T19:16:46.266Z,6.72
2022-09-12T19:19:14.218Z,6.72
2022-09-12T19:21:42.876Z,6.90
2022-09-12T19:24:11.412Z,6.40
2022-09-12T19:26:40.176Z,6.47
2022-09-12T19:29:10.232Z,5.97
2022-09-12T19:31:38.371Z,6.65
2022-09-12T19:34:09.337Z,6.05
2022-09-12T19:36:45.489Z,5.50
2022-09-12T19:39:15.311Z,6.22
2022-09-12T19:41:43.857Z,6.05
2022-09-12T19:44:13.277Z,5.68
2022-09-12T19:46:41.751Z,4.95
2022-09-12T19:49:11.973Z,4.90
2022-09-12T19:51:43.922Z,4.70
2022-09-12T19:54:15.714Z,5.25
2022-09-12T19:56:43.800Z,4.70
2022-09-12T19:59:13.278Z,4.25
2022-09-12T20:01:41.474Z,4.10
2022-09-12T20:04:13.748Z,3.90
2022-09-12T20:06:41.781Z,3.78
2022-09-12T20:09:09.772Z,3.67
2022-09-12T20:11:38.161Z,3.90
2022-09-12T20:14:06.208Z,3.53
2022-09-12T20:16:35.600Z,3.90
2022-09-12T20:19:08.333Z,3.97
2022-09-12T20:21:37.771Z,3.40
2022-09-12T20:24:07.658Z,3.17
2022-09-12T20:26:35.995Z,3.13
2022-09-12T20:29:04.785Z,2.90
2022-09-12T20:31:33.472Z,3.30
2022-09-12T20:34:02.986Z,3.20
2022-09-12T20:36:31.009Z,2.80
2022-09-12T20:39:01.283Z,2.88
2022-09-12T20:41:31.614Z,3.20
2022-09-12T20:43:59.925Z,2.80
2022-09-12T20:46:29.272Z,2.75
2022-09-12T20:48:58.470Z,2.58
2022-09-12T20:51:41.928Z,2.70
2022-09-12T20:54:11.334Z,2.50
2022-09-12T20:56:39.385Z,2.55
2022-09-12T20:59:07.633Z,2.40
2022-09-12T21:01:35.718Z,2.40
2022-09-12T21:04:04.487Z,2.40
2022-09-12T21:06:34.063Z,2.13
2022-09-12T21:09:02.059Z,2.05
2022-09-12T21:11:30.352Z,2.20
2022-09-12T21:13:58.965Z,1.80
2022-09-12T21:16:27.322Z,2.00
2022-09-12T21:18:58.844Z,2.10
2022-09-12T21:21:27.562Z,2.13
2022-09-12T21:23:59.911Z,1.90
2022-09-12T21:26:28.339Z,2.30
2022-09-12T21:28:56.409Z,2.10
2022-09-12T21:31:25.412Z,2.15
2022-09-12T21:33:53.453Z,2.13
2022-09-12T21:36:21.552Z,2.00
2022-09-12T21:38:49.524Z,2.00
2022-09-12T21:41:19.463Z,2.10
2022-09-12T21:43:47.508Z,1.98
2022-09-12T21:46:15.567Z,2.10
2022-09-12T21:48:43.987Z,2.22
2022-09-12T21:51:11.926Z,2.13
2022-09-12T21:53:39.948Z,2.60
2022-09-12T21:56:09.920Z,2.80
2022-09-12T21:58:39.432Z,2.53
2022-09-12T22:01:09.576Z,2.00
2022-09-12T22:03:37.830Z,2.33
2022-09-12T22:06:07.816Z,2.50
2022-09-12T22:08:37.593Z,2.08
2022-09-12T22:11:09.496Z,2.30
2022-09-12T22:13:42.707Z,2.80
2022-09-12T22:16:11.619Z,3.60
2022-09-12T22:18:40.110Z,3.30
2022-09-12T22:21:12.337Z,2.85
2022-09-12T22:23:58.344Z,3.38
2022-09-12T22:26:27.054Z,2.97
2022-09-12T22:28:57.138Z,3.40
2022-09-12T22:31:27.019Z,3.25
2022-09-12T22:33:57.102Z,2.70
2022-09-12T22:36:30.514Z,2.72
2022-09-12T22:38:59.527Z,2.70
2022-09-12T22:41:27.497Z,3.00
2022-09-12T22:43:57.596Z,2.97
2022-09-12T22:46:28.149Z,2.43
2022-09-12T22:48:56.659Z,2.58
2022-09-12T22:51:24.673Z,2.60
2022-09-12T22:53:53.039Z,2.20
2022-09-12T22:56:21.159Z,2.35
2022-09-12T22:58:49.423Z,2.72
2022-09-12T23:01:19.046Z,2.40
2022-09-12T23:03:47.140Z,2.03
2022-09-12T23:06:15.241Z,2.47
2022-09-12T23:08:43.630Z,2.90
2022-09-12T23:11:13.984Z,2.80
2022-09-12T23:13:43.983Z,2.50
2022-09-12T23:16:17.088Z,2.28
2022-09-12T23:18:47.006Z,2.20
2022-09-12T23:21:16.668Z,2.10
2022-09-12T23:23:44.936Z,2.30
2022-09-12T23:26:17.242Z,2.28
2022-09-12T23:28:50.029Z,2.00
2022-09-12T23:31:18.925Z,1.83
2022-09-12T23:33:50.008Z,2.38
2022-09-12T23:36:17.989Z,2.20
2022-09-12T23:38:47.861Z,2.03
2022-09-12T23:41:17.347Z,2.10
2022-09-12T23:43:45.635Z,2.30
2022-09-12T23:46:14.608Z,2.00
2022-09-12T23:48:43.276Z,1.70
2022-09-12T23:51:13.361Z,1.63
2022-09-12T23:53:41.394Z,1.60
2022-09-12T23:56:09.575Z,1.70
2022-09-12T23:58:37.885Z,1.67
